Time;durP1;ratioP1;P1;durP2;ratioP2;P2;SDS_P1;SDS_P2;PMS_P1;PMS_P2;Temp;Humidity;BMP_temperature;BMP_pressure;BME280_temperature;BME280_humidity;BME280_pressure;Samples;Min_cycle;Max_cycle;Signal;HPM_P1;HPM_P2
2022/10/03 00:01:34;;;;;;;0.22;0.20;;;20.90;66.90;;;;;;4999016;28;20045;-50
2022/10/03 00:04:13;;;;;;;0.20;0.20;;;20.80;67.00;;;;;;4997615;28;20052;-40
2022/10/03 00:07:01;;;;;;;0.68;0.20;;;20.80;67.00;;;;;;5019095;28;20069;-56
2022/10/03 00:09:55;;;;;;;0.20;0.20;;;20.80;67.10;;;;;;5020438;28;20049;-54
2022/10/03 00:12:57;;;;;;;0.28;0.28;;;20.80;67.10;;;;;;5004261;28;20049;-45
2022/10/03 00:15:28;;;;;;;0.10;0.10;;;20.80;67.20;;;;;;4999271;28;20124;-46
2022/10/03 00:18:13;;;;;;;0.15;0.10;;;20.70;67.10;;;;;;5001633;28;20048;-46
2022/10/03 00:20:46;;;;;;;0.20;0.20;;;20.70;67.00;;;;;;4997145;28;20052;-56
2022/10/03 00:23:35;;;;;;;0.40;0.28;;;20.80;67.00;;;;;;5010591;28;20049;-53
2022/10/03 00:26:31;;;;;;;0.20;0.10;;;20.70;67.00;;;;;;5036148;28;20123;-54
2022/10/03 00:29:03;;;;;;;0.17;0.17;;;20.70;67.00;;;;;;5011479;28;20046;-55
2022/10/03 00:31:41;;;;;;;0.45;0.20;;;20.70;67.00;;;;;;5029754;28;20053;-52
2022/10/03 00:34:37;;;;;;;0.38;0.38;;;20.70;67.00;;;;;;4998703;28;20637;-49
2022/10/03 00:37:25;;;;;;;0.20;0.20;;;20.70;67.00;;;;;;5033042;28;20056;-52
2022/10/03 00:40:00;;;;;;;0.20;0.20;;;20.70;67.00;;;;;;5074962;28;20075;-57
2022/10/03 00:43:03;;;;;;;3.22;0.20;;;20.70;67.00;;;;;;5058949;28;20152;-49
2022/10/03 00:45:54;;;;;;;0.20;0.17;;;20.70;67.00;;;;;;5062753;28;20122;-59
2022/10/03 00:48:47;;;;;;;0.20;0.20;;;20.70;67.00;;;;;;5053191;28;20132;-57
2022/10/03 00:51:31;;;;;;;0.30;0.10;;;20.70;67.00;;;;;;5040139;28;20048;-55
2022/10/03 00:54:06;;;;;;;0.15;0.15;;;20.70;67.10;;;;;;5052090;28;20056;-48
2022/10/03 00:56:35;;;;;;;0.20;0.15;;;20.70;67.00;;;;;;5057343;28;20045;-50
2022/10/03 00:59:11;;;;;;;0.10;0.10;;;20.70;67.00;;;;;;5040163;28;20049;-57
2022/10/03 01:01:44;;;;;;;0.40;0.30;;;20.70;67.10;;;;;;5038821;28;20033;-48
2022/10/03 01:04:34;;;;;;;0.20;0.20;;;20.70;67.10;;;;;;5066237;28;20572;-54
2022/10/03 01:07:15;;;;;;;0.20;0.20;;;20.70;67.00;;;;;;5060037;28;20502;-58
2022/10/03 01:09:59;;;;;;;0.20;0.10;;;20.70;67.00;;;;;;5037914;28;20037;-52
2022/10/03 01:12:37;;;;;;;0.20;0.20;;;20.70;67.00;;;;;;5049704;28;20049;-53
2022/10/03 01:15:06;;;;;;;0.10;0.10;;;20.70;67.00;;;;;;5041346;28;20052;-58
2022/10/03 01:17:37;;;;;;;0.20;0.10;;;20.60;67.00;;;;;;5056692;28;20525;-54
2022/10/03 01:20:31;;;;;;;0.10;0.10;;;20.70;67.00;;;;;;5052953;28;20235;-58
2022/10/03 01:23:12;;;;;;;0.30;0.20;;;20.70;67.00;;;;;;5035896;28;20068;-53
2022/10/03 01:25:52;;;;;;;0.20;0.13;;;20.60;66.90;;;;;;5041823;28;20068;-53
2022/10/03 01:31:11;;;;;;;0.30;0.10;;;20.60;66.90;;;;;;5048663;28;20097;-51
2022/10/03 01:33:41;;;;;;;0.10;0.10;;;20.70;67.00;;;;;;5059130;28;20040;-54
2022/10/03 01:36:33;;;;;;;0.08;0.08;;;20.60;66.90;;;;;;5043083;28;20101;-56
2022/10/03 01:39:12;;;;;;;0.13;0.10;;;20.70;66.90;;;;;;5048508;28;20052;-49
2022/10/03 01:42:00;;;;;;;0.13;0.10;;;20.70;66.90;;;;;;5058351;28;20129;-59
2022/10/03 01:44:42;;;;;;;0.47;0.30;;;20.60;66.90;;;;;;5058409;28;20123;-46
2022/10/03 01:47:33;;;;;;;0.00;0.00;;;20.70;66.70;;;;;;5056298;28;20051;-59
2022/10/03 01:50:01;;;;;;;0.20;0.20;;;20.70;66.90;;;;;;5075306;28;20040;-56
2022/10/03 01:52:57;;;;;;;0.10;0.03;;;20.60;66.70;;;;;;5057132;28;20127;-57
2022/10/03 01:55:35;;;;;;;0.45;0.17;;;20.60;66.80;;;;;;5038728;28;20578;-60
2022/10/03 01:58:03;;;;;;;0.75;0.10;;;20.60;66.80;;;;;;5037321;28;20091;-56
2022/10/03 02:00:55;;;;;;;0.20;0.20;;;20.60;66.80;;;;;;5019156;28;20041;-43
2022/10/03 02:03:31;;;;;;;0.20;0.10;;;20.60;66.80;;;;;;5014991;28;20122;-54
2022/10/03 02:05:59;;;;;;;0.20;0.20;;;20.60;66.70;;;;;;5018965;28;20056;-55
2022/10/03 02:08:52;;;;;;;0.32;0.10;;;20.70;66.80;;;;;;5019519;28;20049;-53
2022/10/03 02:11:48;;;;;;;0.10;0.10;;;20.60;66.70;;;;;;5022330;28;20467;-49
2022/10/03 02:14:49;;;;;;;0.15;0.10;;;20.70;66.50;;;;;;5029276;28;20131;-56
2022/10/03 02:17:54;;;;;;;0.30;0.20;;;20.70;66.60;;;;;;4928798;28;20536;-57
2022/10/03 02:20:43;;;;;;;0.13;0.10;;;20.70;66.50;;;;;;4913048;28;20055;-59
2022/10/03 02:23:30;;;;;;;0.20;0.20;;;20.70;67.30;;;;;;4930071;28;20311;-56
2022/10/03 02:26:26;;;;;;;0.20;0.20;;;20.70;66.50;;;;;;4928866;28;20044;-47
2022/10/03 02:29:13;;;;;;;0.10;0.10;;;20.70;66.40;;;;;;4929749;28;20043;-53
2022/10/03 02:32:08;;;;;;;0.10;0.10;;;20.70;66.40;;;;;;4938563;28;20051;-58
2022/10/03 02:35:13;;;;;;;1.02;0.30;;;20.70;66.40;;;;;;4965978;28;20049;-59
2022/10/03 02:37:57;;;;;;;0.38;0.10;;;20.70;66.40;;;;;;4940191;28;20453;-60
2022/10/03 02:40:40;;;;;;;0.33;0.13;;;20.70;66.40;;;;;;4965598;28;20130;-58
2022/10/03 02:43:41;;;;;;;0.22;0.10;;;20.70;66.40;;;;;;4962758;28;20059;-55
2022/10/03 02:46:24;;;;;;;0.20;0.20;;;20.70;66.50;;;;;;4967300;28;20050;-57
2022/10/03 02:49:23;;;;;;;0.10;0.10;;;20.70;66.40;;;;;;4965058;28;20585;-58
2022/10/03 02:52:16;;;;;;;0.10;0.10;;;20.70;66.50;;;;;;5034690;28;20044;-61
2022/10/03 02:55:19;;;;;;;0.10;0.10;;;20.70;66.50;;;;;;5064823;28;20053;-61
2022/10/03 02:58:12;;;;;;;0.10;0.10;;;20.70;66.40;;;;;;5064571;28;20750;-57
2022/10/03 03:01:03;;;;;;;0.20;0.20;;;20.70;66.40;;;;;;5065199;28;20121;-56
2022/10/03 03:03:37;;;;;;;0.30;0.30;;;20.70;66.50;;;;;;5060735;28;20136;-59
2022/10/03 03:06:21;;;;;;;0.20;0.20;;;20.70;66.30;;;;;;5065211;28;20044;-57
2022/10/03 03:09:13;;;;;;;0.20;0.20;;;20.70;66.30;;;;;;5064187;28;20048;-59
2022/10/03 03:12:06;;;;;;;0.10;0.10;;;20.70;66.20;;;;;;5052138;28;21764;-60
2022/10/03 03:14:45;;;;;;;0.25;0.20;;;20.70;66.20;;;;;;5059982;28;20070;-51
2022/10/03 03:17:22;;;;;;;0.10;0.10;;;20.70;66.20;;;;;;5062216;28;20668;-60
2022/10/03 03:20:15;;;;;;;0.30;0.20;;;20.70;66.10;;;;;;5062134;28;20074;-62
2022/10/03 03:22:58;;;;;;;0.13;0.13;;;20.70;66.10;;;;;;5041295;28;20060;-50
2022/10/03 03:25:29;;;;;;;0.13;0.13;;;20.70;66.10;;;;;;5063396;28;20044;-59
2022/10/03 03:28:13;;;;;;;0.30;0.10;;;20.70;66.10;;;;;;5059231;28;20132;-57
2022/10/03 03:30:50;;;;;;;0.20;0.20;;;20.70;66.10;;;;;;5063314;28;20042;-60
2022/10/03 03:33:39;;;;;;;0.20;0.20;;;20.70;66.00;;;;;;5060185;28;20152;-58
2022/10/03 03:36:42;;;;;;;0.50;0.50;;;20.70;65.90;;;;;;5064499;28;20029;-53
2022/10/03 03:39:42;;;;;;;0.25;0.10;;;20.70;66.00;;;;;;5058332;28;20044;-57
2022/10/03 03:42:42;;;;;;;0.10;0.10;;;20.70;66.10;;;;;;5064716;28;20039;-61
2022/10/03 03:45:29;;;;;;;0.10;0.10;;;20.70;66.10;;;;;;5058978;28;20503;-54
2022/10/03 03:48:24;;;;;;;0.50;0.22;;;20.70;66.00;;;;;;5063104;28;20032;-62
2022/10/03 03:51:09;;;;;;;0.10;0.10;;;20.70;65.90;;;;;;5066089;28;20414;-56
2022/10/03 03:53:58;;;;;;;0.40;0.20;;;20.70;65.90;;;;;;5059435;28;21619;-59
2022/10/03 03:56:38;;;;;;;0.10;0.10;;;20.70;66.00;;;;;;5060769;28;20584;-61
2022/10/03 03:59:19;;;;;;;0.10;0.10;;;20.70;66.10;;;;;;5057893;28;20494;-57
2022/10/03 04:01:50;;;;;;;0.20;0.20;;;20.70;66.00;;;;;;5063074;28;20029;-57
2022/10/03 04:04:54;;;;;;;0.15;0.15;;;20.70;65.90;;;;;;5058017;28;20094;-58
2022/10/03 04:07:56;;;;;;;0.20;0.20;;;20.70;65.80;;;;;;5064451;28;20033;-56
2022/10/03 04:10:30;;;;;;;0.20;0.20;;;20.70;65.90;;;;;;5057845;28;20040;-59
2022/10/03 04:13:23;;;;;;;0.25;0.20;;;20.70;66.00;;;;;;5060905;28;20032;-53
2022/10/03 04:16:07;;;;;;;0.20;0.10;;;20.70;65.90;;;;;;5069109;28;20028;-57
2022/10/03 04:18:57;;;;;;;0.50;0.20;;;20.70;66.00;;;;;;5064622;28;20940;-59
2022/10/03 04:21:39;;;;;;;0.10;0.10;;;20.60;65.90;;;;;;5066446;28;20037;-55
2022/10/03 04:24:23;;;;;;;0.20;0.20;;;20.70;66.00;;;;;;5043387;28;20646;-52
2022/10/03 04:27:01;;;;;;;0.10;0.10;;;20.60;66.00;;;;;;5062530;28;20103;-53
2022/10/03 04:29:43;;;;;;;0.20;0.20;;;20.60;66.10;;;;;;5074471;28;20506;-60
2022/10/03 04:32:35;;;;;;;0.20;0.13;;;20.70;66.10;;;;;;5058997;28;20061;-58
2022/10/03 04:35:34;;;;;;;0.30;0.20;;;20.70;66.00;;;;;;5068907;28;20040;-60
2022/10/03 04:38:36;;;;;;;0.10;0.10;;;20.70;66.90;;;;;;5058474;28;20044;-54
2022/10/03 04:41:07;;;;;;;0.30;0.20;;;20.70;66.90;;;;;;5078183;28;20094;-59
2022/10/03 04:43:51;;;;;;;0.13;0.13;;;20.60;66.00;;;;;;5064338;28;20119;-58
2022/10/03 04:46:30;;;;;;;0.30;0.30;;;20.60;66.10;;;;;;5083702;28;20037;-56
2022/10/03 04:49:03;;;;;;;0.20;0.15;;;20.60;66.10;;;;;;5054814;28;20029;-58
2022/10/03 04:51:53;;;;;;;0.20;0.20;;;20.60;66.00;;;;;;5060086;28;20400;-56
2022/10/03 04:54:43;;;;;;;1.35;0.20;;;20.60;66.20;;;;;;5058792;28;20056;-57
2022/10/03 04:57:31;;;;;;;1.38;0.20;;;20.60;66.20;;;;;;5063853;28;20760;-59
2022/10/03 05:00:14;;;;;;;0.40;0.40;;;20.70;66.10;;;;;;5061055;28;20041;-59
2022/10/03 05:02:47;;;;;;;0.30;0.20;;;20.70;66.10;;;;;;5056881;28;20041;-55
2022/10/03 05:05:30;;;;;;;0.28;0.20;;;20.60;66.10;;;;;;5057903;28;20495;-57
2022/10/03 05:08:20;;;;;;;0.20;0.20;;;20.70;66.40;;;;;;5056105;28;20063;-52
2022/10/03 05:11:17;;;;;;;0.38;0.20;;;20.70;66.50;;;;;;5060365;28;20551;-56
2022/10/03 05:14:19;;;;;;;0.20;0.10;;;20.70;67.10;;;;;;5055219;28;20052;-55
2022/10/03 05:16:52;;;;;;;0.43;0.25;;;20.70;67.60;;;;;;5056857;28;20044;-59
2022/10/03 05:19:39;;;;;;;0.20;0.20;;;20.70;68.20;;;;;;5059741;28;20048;-57
2022/10/03 05:22:12;;;;;;;1.55;0.30;;;20.70;68.00;;;;;;5063310;28;20021;-57
2022/10/03 05:24:54;;;;;;;0.33;0.10;;;20.70;68.00;;;;;;5050069;28;20048;-50
2022/10/03 05:27:20;;;;;;;0.17;0.17;;;20.70;68.00;;;;;;5060479;28;20040;-51
2022/10/03 05:30:13;;;;;;;0.60;0.30;;;20.70;68.30;;;;;;5042157;28;20033;-56
2022/10/03 05:32:53;;;;;;;1.00;0.40;;;20.70;68.80;;;;;;5047490;28;20151;-59
2022/10/03 05:35:28;;;;;;;4.22;0.30;;;20.70;67.80;;;;;;5052416;28;20133;-56
2022/10/03 05:37:56;;;;;;;0.20;0.20;;;20.80;67.90;;;;;;5043103;28;20044;-56
2022/10/03 05:40:25;;;;;;;0.73;0.22;;;20.70;67.60;;;;;;5043392;28;20461;-54
2022/10/03 05:43:07;;;;;;;0.90;0.35;;;20.70;67.50;;;;;;5043755;28;20499;-58
2022/10/03 05:46:10;;;;;;;0.28;0.28;;;20.70;68.60;;;;;;5042419;28;20040;-53
2022/10/03 05:49:02;;;;;;;0.50;0.40;;;20.80;68.00;;;;;;5059034;28;21232;-59
2022/10/03 05:51:46;;;;;;;0.90;0.43;;;20.70;68.40;;;;;;5063039;28;20106;-57
2022/10/03 05:54:50;;;;;;;2.00;0.40;;;20.70;67.60;;;;;;5044681;28;20152;-57
2022/10/03 05:57:29;;;;;;;0.35;0.32;;;20.80;68.40;;;;;;5039484;28;20033;-57
2022/10/03 06:00:06;;;;;;;0.30;0.30;;;20.80;68.20;;;;;;5030386;28;20428;-60
2022/10/03 06:02:49;;;;;;;0.63;0.40;;;20.80;68.40;;;;;;5039483;28;20163;-59
2022/10/03 06:05:26;;;;;;;2.13;0.28;;;20.80;68.30;;;;;;5040017;28;20511;-59
2022/10/03 06:08:15;;;;;;;0.50;0.30;;;20.80;68.00;;;;;;5010573;28;20041;-57
2022/10/03 06:10:43;;;;;;;1.83;0.43;;;20.80;68.20;;;;;;5037843;28;20045;-54
2022/10/03 06:13:11;;;;;;;0.30;0.30;;;20.80;68.20;;;;;;5037620;28;20470;-59
2022/10/03 06:15:53;;;;;;;0.28;0.28;;;20.80;68.60;;;;;;5028601;28;20044;-57
2022/10/03 06:18:42;;;;;;;0.70;0.47;;;20.80;69.00;;;;;;5028637;28;20041;-57
2022/10/03 06:21:13;;;;;;;0.60;0.22;;;20.80;68.20;;;;;;5038703;28;20119;-52
2022/10/03 06:24:16;;;;;;;5.07;0.40;;;20.80;68.60;;;;;;5039885;28;20057;-59
2022/10/03 06:26:57;;;;;;;0.45;0.45;;;20.80;68.40;;;;;;5035479;28;20056;-60
2022/10/03 06:29:34;;;;;;;0.30;0.30;;;20.90;68.30;;;;;;5042493;28;20071;-21
2022/10/03 06:32:53;;;;;;;1.08;0.32;;;20.80;68.20;;;;;;5039057;28;20065;-19
2022/10/03 06:35:46;;;;;;;1.65;0.30;;;20.80;68.10;;;;;;5039449;28;20431;-19
2022/10/03 06:38:30;;;;;;;4.28;0.68;;;20.80;68.20;;;;;;5081720;28;22029;-18
2022/10/03 06:41:17;;;;;;;0.20;0.20;;;20.80;68.00;;;;;;5049432;28;20120;-19
2022/10/03 06:44:01;;;;;;;0.45;0.10;;;20.80;68.00;;;;;;5057383;28;20049;-19
2022/10/03 06:46:45;;;;;;;;;;;20.80;68.00;;;;;;5047088;28;20140;-24
2022/10/03 06:49:27;;;;;;;0.93;0.40;;;20.80;68.00;;;;;;5052034;28;19916;-19
2022/10/03 06:52:24;;;;;;;0.88;0.28;;;20.80;68.00;;;;;;5065832;28;20044;-19
2022/10/03 06:55:12;;;;;;;0.35;0.30;;;20.80;67.80;;;;;;5060442;28;20059;-19
2022/10/03 06:57:41;;;;;;;1.25;0.17;;;20.80;67.80;;;;;;5057179;28;20083;-18
2022/10/03 07:00:40;;;;;;;1.10;0.20;;;20.80;67.70;;;;;;5049199;28;20053;-19
2022/10/03 07:03:44;;;;;;;0.32;0.30;;;20.80;67.80;;;;;;4972652;28;20043;-19
2022/10/03 07:06:21;;;;;;;0.20;0.20;;;20.80;67.60;;;;;;4955790;28;20054;-19
2022/10/03 07:09:04;;;;;;;0.45;0.28;;;20.80;67.60;;;;;;4967145;28;20113;-20
2022/10/03 07:11:53;;;;;;;0.77;0.50;;;20.80;67.50;;;;;;4964988;28;20181;-19
2022/10/03 07:14:36;;;;;;;0.47;0.30;;;20.80;67.50;;;;;;4966142;28;20520;-19
2022/10/03 07:17:23;;;;;;;0.28;0.20;;;20.80;67.50;;;;;;4967625;28;20134;-19
2022/10/03 07:20:13;;;;;;;0.20;0.20;;;20.80;67.50;;;;;;4974812;28;20047;-23
2022/10/03 07:23:06;;;;;;;0.38;0.22;;;20.80;67.40;;;;;;4975551;28;20582;-19
2022/10/03 07:25:54;;;;;;;0.28;0.20;;;20.80;67.50;;;;;;4978993;28;20117;-19
2022/10/03 07:28:30;;;;;;;0.30;0.28;;;20.80;67.50;;;;;;4966606;28;20050;-19
2022/10/03 07:31:06;;;;;;;0.85;0.30;;;20.80;67.50;;;;;;4969806;28;20507;-19
2022/10/03 07:33:35;;;;;;;0.30;0.15;;;20.80;67.50;;;;;;4969260;28;20508;-19
2022/10/03 07:39:28;;;;;;;;;;;20.80;67.40;;;;;;4987316;28;20053;-19
2022/10/03 07:42:21;;;;;;;1.73;0.20;;;20.80;67.20;;;;;;5068381;28;20398;-19
2022/10/03 07:45:01;;;;;;;0.20;0.20;;;20.80;67.30;;;;;;5066136;28;20124;-18
2022/10/03 07:47:30;;;;;;;1.13;0.20;;;20.80;67.20;;;;;;5066800;28;20032;-19
2022/10/03 07:50:15;;;;;;;0.30;0.30;;;20.80;67.20;;;;;;5066468;28;20435;-19
2022/10/03 07:52:57;;;;;;;0.50;0.20;;;20.80;67.10;;;;;;5064367;28;20055;-19
2022/10/03 07:55:45;;;;;;;0.13;0.13;;;20.80;67.10;;;;;;5064010;28;20498;-19
2022/10/03 07:58:29;;;;;;;0.32;0.20;;;20.80;67.00;;;;;;5061552;28;20040;-19
2022/10/03 08:01:06;;;;;;;0.20;0.20;;;20.80;67.10;;;;;;5067013;28;20514;-19
2022/10/03 08:03:41;;;;;;;0.30;0.20;;;20.80;67.00;;;;;;5040059;28;20450;-19
2022/10/03 08:06:23;;;;;;;0.20;0.20;;;20.80;67.10;;;;;;5055066;28;20491;-19
2022/10/03 08:09:01;;;;;;;0.17;0.17;;;20.80;67.10;;;;;;5080360;28;20040;-19
2022/10/03 08:11:54;;;;;;;0.30;0.20;;;20.80;66.90;;;;;;5057151;28;20052;-23
2022/10/03 08:14:31;;;;;;;0.20;0.20;;;20.80;67.00;;;;;;5059965;28;20419;-19
2022/10/03 08:17:23;;;;;;;0.30;0.30;;;20.80;66.90;;;;;;5065783;28;20048;-19
2022/10/03 08:20:18;;;;;;;0.50;0.20;;;20.80;66.90;;;;;;5065435;28;20048;-19
2022/10/03 08:23:07;;;;;;;0.50;0.30;;;20.80;66.90;;;;;;5062614;28;20044;-18
2022/10/03 08:25:38;;;;;;;0.10;0.00;;;20.80;67.00;;;;;;5059692;28;20045;-19
2022/10/03 08:28:37;;;;;;;0.10;0.10;;;20.70;66.90;;;;;;5045559;28;20041;-19
2022/10/03 08:31:24;;;;;;;2.20;0.10;;;20.80;67.00;;;;;;5043963;28;20128;-19
2022/10/03 08:33:53;;;;;;;0.17;0.15;;;20.80;66.90;;;;;;5069888;28;20029;-20
2022/10/03 08:36:55;;;;;;;0.30;0.30;;;20.80;66.90;;;;;;5060041;28;20056;-19
2022/10/03 08:39:53;;;;;;;0.30;0.30;;;20.80;66.90;;;;;;5042913;28;20044;-19
2022/10/03 08:42:52;;;;;;;0.20;0.20;;;20.80;67.00;;;;;;5028839;28;20080;-19
2022/10/03 08:45:42;;;;;;;0.20;0.20;;;20.80;66.90;;;;;;5029266;28;20037;-24
2022/10/03 08:48:23;;;;;;;0.65;0.20;;;20.80;66.90;;;;;;5042181;28;20041;-19
2022/10/03 08:51:09;;;;;;;0.20;0.20;;;20.70;66.80;;;;;;5044312;28;20226;-19
2022/10/03 08:53:37;;;;;;;0.15;0.15;;;20.80;66.90;;;;;;5036890;28;20049;-28
2022/10/03 08:56:38;;;;;;;0.30;0.25;;;20.70;66.80;;;;;;5024305;28;20044;-19
2022/10/03 08:59:24;;;;;;;0.30;0.20;;;20.80;66.90;;;;;;5008425;28;20061;-19
2022/10/03 09:02:14;;;;;;;0.10;0.10;;;20.80;66.80;;;;;;5028491;28;20745;-19
2022/10/03 09:05:02;;;;;;;0.50;0.30;;;20.80;66.70;;;;;;5040192;28;20052;-19
2022/10/03 09:08:02;;;;;;;0.13;0.13;;;20.80;66.60;;;;;;5027322;28;20045;-19
2022/10/03 09:10:52;;;;;;;0.20;0.20;;;20.80;66.70;;;;;;5026083;28;20549;-19
2022/10/03 09:14:02;;;;;;;0.47;0.20;;;20.80;66.80;;;;;;5039118;28;20044;-19
2022/10/03 09:16:48;;;;;;;0.40;0.40;;;20.80;67.10;;;;;;5025081;28;20053;-19
2022/10/03 09:19:19;;;;;;;0.28;0.10;;;20.80;66.70;;;;;;5051028;28;20064;-19
2022/10/03 09:21:54;;;;;;;0.20;0.20;;;20.80;66.70;;;;;;5066145;28;20568;-20
2022/10/03 09:24:19;;;;;;;0.20;0.20;;;20.70;66.70;;;;;;5040304;28;20049;-19
2022/10/03 09:26:57;;;;;;;0.17;0.17;;;20.80;66.70;;;;;;5044754;28;20093;-19
2022/10/03 09:29:38;;;;;;;0.40;0.10;;;20.70;66.60;;;;;;5046420;28;20055;-19
2022/10/03 09:32:40;;;;;;;0.20;0.10;;;20.80;66.60;;;;;;5055189;28;20056;-19
2022/10/03 09:35:34;;;;;;;0.30;0.30;;;20.80;66.70;;;;;;5044742;28;20426;-19
2022/10/03 09:38:03;;;;;;;0.20;0.10;;;20.80;66.50;;;;;;5041208;28;20638;-19
2022/10/03 09:40:57;;;;;;;0.30;0.20;;;20.80;66.50;;;;;;5043469;28;20170;-19
2022/10/03 09:43:58;;;;;;;0.45;0.20;;;20.70;66.50;;;;;;5060162;28;20041;-19
2022/10/03 09:46:26;;;;;;;0.45;0.20;;;20.80;66.60;;;;;;4965755;28;20222;-18
2022/10/03 09:49:18;;;;;;;0.30;0.10;;;20.80;66.40;;;;;;4972384;28;20038;-19
2022/10/03 09:52:03;;;;;;;0.20;0.17;;;20.80;66.50;;;;;;4943930;28;20070;-19
2022/10/03 09:54:50;;;;;;;0.28;0.20;;;20.80;66.60;;;;;;4954721;28;20046;-19
2022/10/03 09:57:43;;;;;;;1.95;0.10;;;20.80;66.60;;;;;;4981302;28;20085;-18
2022/10/03 10:00:26;;;;;;;0.20;0.20;;;20.80;66.50;;;;;;4980365;28;20134;-19
2022/10/03 10:03:30;;;;;;;0.13;0.10;;;20.80;66.60;;;;;;4955792;28;20424;-20
2022/10/03 10:06:16;;;;;;;0.10;0.10;;;20.80;66.70;;;;;;4968951;28;20047;-19
2022/10/03 10:09:17;;;;;;;0.20;0.10;;;20.80;66.60;;;;;;4974265;28;20055;-19
2022/10/03 10:12:01;;;;;;;0.28;0.28;;;20.70;68.70;;;;;;4954563;28;20054;-19
2022/10/03 10:14:44;;;;;;;0.10;0.10;;;20.70;68.80;;;;;;4961273;28;20070;-19
2022/10/03 10:17:25;;;;;;;0.10;0.10;;;20.70;69.00;;;;;;4619280;28;10000072;-19
2022/10/03 10:19:54;;;;;;;0.10;0.10;;;20.70;69.50;;;;;;4950070;28;20042;-19
2022/10/03 10:22:56;;;;;;;0.20;0.20;;;20.70;68.70;;;;;;4648236;28;10001009;-19
2022/10/03 10:25:43;;;;;;;0.10;0.10;;;20.70;68.20;;;;;;5045366;28;20064;-19
2022/10/03 10:28:25;;;;;;;0.20;0.20;;;20.70;69.00;;;;;;5033198;28;20048;-19
2022/10/03 10:31:35;;;;;;;0.20;0.13;;;20.70;67.90;;;;;;5056825;28;20048;-19
2022/10/03 10:34:29;;;;;;;0.10;0.10;;;20.80;67.70;;;;;;5028631;28;20070;-19
2022/10/03 10:37:32;;;;;;;0.20;0.20;;;20.70;68.40;;;;;;5050415;28;20044;-18
2022/10/03 10:39:57;;;;;;;0.13;0.13;;;20.80;67.60;;;;;;5054752;28;20499;-29
2022/10/03 10:42:37;;;;;;;2.33;0.45;;;20.80;68.50;;;;;;5057216;28;20052;-19
2022/10/03 10:45:23;;;;;;;1.30;0.57;;;20.80;68.40;;;;;;5058572;28;20434;-19
2022/10/03 10:48:13;;;;;;;0.52;0.40;;;20.80;67.80;;;;;;5057240;28;20041;-19
2022/10/03 10:50:57;;;;;;;0.30;0.30;;;20.80;68.60;;;;;;5057434;28;20059;-19
2022/10/03 10:54:00;;;;;;;0.77;0.30;;;20.80;67.90;;;;;;5054224;28;20052;-19
2022/10/03 10:56:54;;;;;;;0.38;0.38;;;20.90;68.30;;;;;;5059311;28;20052;-19
2022/10/03 10:59:42;;;;;;;0.82;0.25;;;20.90;68.80;;;;;;5053861;28;20102;-19
2022/10/03 11:02:42;;;;;;;0.28;0.28;;;20.80;68.10;;;;;;5059171;28;20148;-19
2022/10/03 11:05:33;;;;;;;0.77;0.30;;;20.80;67.80;;;;;;5053354;28;20041;-19
2022/10/03 11:08:07;;;;;;;0.35;0.28;;;20.80;67.70;;;;;;5054789;28;20091;-19
2022/10/03 11:10:38;;;;;;;0.20;0.20;;;20.80;67.90;;;;;;5056395;28;20068;-19
2022/10/03 11:13:16;;;;;;;0.20;0.20;;;20.80;68.00;;;;;;5041619;28;20029;-19
2022/10/03 11:16:06;;;;;;;0.50;0.47;;;20.90;68.40;;;;;;5045553;28;20053;-18
2022/10/03 11:19:04;;;;;;;1.02;0.38;;;20.90;68.10;;;;;;5035983;28;20071;-19
2022/10/03 11:21:54;;;;;;;0.35;0.30;;;20.90;68.30;;;;;;5038112;28;20044;-19
2022/10/03 11:24:31;;;;;;;0.40;0.40;;;20.90;68.50;;;;;;5038187;28;20037;-19
2022/10/03 11:27:15;;;;;;;0.75;0.60;;;21.00;70.10;;;;;;5039886;28;20135;-19
2022/10/03 11:30:31;;;;;;;0.60;0.60;;;21.00;68.10;;;;;;5034020;28;20044;-19
2022/10/03 11:33:30;;;;;;;0.52;0.38;;;21.00;68.70;;;;;;5018304;28;20091;-19
2022/10/03 11:36:13;;;;;;;0.50;0.50;;;21.00;68.30;;;;;;5007875;28;20053;-19
2022/10/03 11:38:41;;;;;;;0.90;0.40;;;21.00;68.40;;;;;;5016722;28;20053;-19
2022/10/03 11:41:15;;;;;;;0.63;0.60;;;21.00;67.80;;;;;;5002435;28;20460;-19
2022/10/03 11:44:03;;;;;;;1.05;0.45;;;21.00;68.40;;;;;;5012062;28;20551;-19
2022/10/03 11:46:53;;;;;;;0.63;0.60;;;21.00;68.40;;;;;;5001763;28;20103;-19
2022/10/03 11:49:43;;;;;;;0.50;0.50;;;21.10;67.80;;;;;;5018987;28;20104;-19
2022/10/03 11:52:26;;;;;;;0.77;0.77;;;21.10;67.80;;;;;;5004857;28;20037;-19
2022/10/03 11:55:16;;;;;;;0.70;0.60;;;21.10;68.70;;;;;;5003883;28;20045;-19
2022/10/03 11:57:42;;;;;;;0.80;0.57;;;21.10;68.40;;;;;;5005666;28;20054;-19
2022/10/03 12:00:19;;;;;;;0.70;0.60;;;21.10;68.70;;;;;;5001619;28;20115;-19
2022/10/03 12:03:09;;;;;;;1.42;0.50;;;21.10;68.40;;;;;;5019132;28;20045;-19
2022/10/03 12:05:40;;;;;;;1.45;0.50;;;21.10;68.40;;;;;;5051573;28;20052;-19
2022/10/03 12:11:12;;;;;;;0.68;0.60;;;21.10;68.70;;;;;;5078168;28;20063;-20
2022/10/03 12:13:50;;;;;;;0.57;0.50;;;21.10;68.60;;;;;;5055627;28;20040;-19
2022/10/03 12:16:27;;;;;;;0.70;0.70;;;21.10;68.40;;;;;;5062860;28;20040;-19
2022/10/03 12:19:05;;;;;;;0.40;0.40;;;21.10;68.20;;;;;;5035449;28;20098;-19
2022/10/03 12:21:48;;;;;;;0.68;0.63;;;21.10;68.00;;;;;;5063744;28;20044;-19
2022/10/03 12:24:23;;;;;;;0.50;0.50;;;21.10;68.00;;;;;;5040892;28;20033;-19
2022/10/03 12:26:53;;;;;;;0.40;0.40;;;21.10;67.90;;;;;;5062043;28;20506;-19
2022/10/03 12:29:20;;;;;;;0.40;0.40;;;21.10;67.60;;;;;;5068489;28;20129;-36
2022/10/03 12:32:17;;;;;;;0.32;0.32;;;21.10;68.00;;;;;;5082920;28;20049;-35
2022/10/03 12:34:56;;;;;;;0.60;0.60;;;21.20;67.80;;;;;;5062429;28;20053;-40
2022/10/03 12:37:50;;;;;;;1.65;0.50;;;21.20;67.50;;;;;;5079544;28;20033;-36
2022/10/03 12:40:39;;;;;;;0.60;0.60;;;21.10;67.90;;;;;;5056433;28;20089;-37
2022/10/03 12:43:16;;;;;;;0.40;0.40;;;21.20;67.80;;;;;;5047125;28;20411;-38
2022/10/03 12:46:01;;;;;;;0.70;0.50;;;21.20;68.00;;;;;;5043438;28;20408;-36
2022/10/03 12:48:47;;;;;;;0.52;0.52;;;21.20;67.90;;;;;;5038471;28;20052;-37
2022/10/03 12:51:18;;;;;;;0.40;0.40;;;21.20;68.00;;;;;;5051051;28;20418;-31
2022/10/03 12:54:24;;;;;;;0.50;0.50;;;21.20;67.90;;;;;;5061211;28;20036;-37
2022/10/03 12:57:09;;;;;;;1.08;0.75;;;21.20;67.60;;;;;;4986643;28;20033;-37
2022/10/03 12:59:59;;;;;;;0.60;0.60;;;21.20;67.70;;;;;;4988308;28;20042;-40
2022/10/03 13:03:09;;;;;;;0.40;0.40;;;21.10;67.50;;;;;;4985719;28;20058;-35
2022/10/03 13:06:05;;;;;;;0.50;0.50;;;21.20;67.70;;;;;;4981252;28;20076;-37
2022/10/03 13:08:42;;;;;;;0.45;0.45;;;21.20;67.30;;;;;;4969505;28;20558;-40
2022/10/03 13:11:45;;;;;;;0.52;0.52;;;21.20;68.30;;;;;;5003333;28;20536;-37
2022/10/03 13:14:37;;;;;;;0.35;0.35;;;21.20;67.60;;;;;;4999237;28;20041;-37
2022/10/03 13:17:34;;;;;;;0.52;0.50;;;21.20;67.50;;;;;;4980605;28;20054;-35
2022/10/03 13:20:05;;;;;;;0.50;0.50;;;21.20;67.30;;;;;;4999415;28;20116;-36
2022/10/03 13:23:11;;;;;;;0.32;0.32;;;21.10;67.40;;;;;;5002948;28;20038;-36
2022/10/03 13:25:45;;;;;;;0.38;0.38;;;21.10;67.50;;;;;;4952295;28;20051;-37
2022/10/03 13:28:11;;;;;;;0.30;0.30;;;21.10;67.30;;;;;;4956036;28;20047;-36
2022/10/03 13:30:52;;;;;;;0.50;0.50;;;21.10;67.50;;;;;;4972075;28;20142;-37
2022/10/03 13:33:25;;;;;;;0.40;0.40;;;21.10;67.40;;;;;;5004160;28;20033;-35
2022/10/03 13:36:04;;;;;;;0.20;0.20;;;21.10;67.50;;;;;;4998948;28;20050;-36
2022/10/03 13:38:36;;;;;;;0.30;0.30;;;21.10;67.50;;;;;;5004257;28;20041;-33
2022/10/03 13:41:20;;;;;;;0.52;0.30;;;21.10;67.30;;;;;;5015079;28;20120;-37
2022/10/03 13:44:09;;;;;;;0.32;0.32;;;21.10;67.50;;;;;;5019320;28;20053;-35
2022/10/03 13:47:12;;;;;;;0.25;0.25;;;21.10;67.50;;;;;;4998049;28;20532;-35
2022/10/03 13:49:46;;;;;;;0.22;0.20;;;21.10;67.30;;;;;;4996441;28;20071;-40
2022/10/03 13:52:14;;;;;;;;;;;21.10;67.40;;;;;;4977918;28;20049;-36
2022/10/03 13:55:05;;;;;;;0.30;0.30;;;21.10;67.40;;;;;;5017499;28;20650;-36
2022/10/03 13:58:08;;;;;;;0.30;0.30;;;21.10;67.30;;;;;;5062159;28;20064;-37
2022/10/03 14:01:00;;;;;;;0.30;0.30;;;21.20;67.30;;;;;;5060671;28;20044;-35
2022/10/03 14:03:40;;;;;;;0.20;0.20;;;21.10;67.10;;;;;;5003419;28;20104;-40
2022/10/03 14:06:39;;;;;;;0.30;0.30;;;21.10;67.30;;;;;;4999664;28;20469;-33
2022/10/03 14:09:27;;;;;;;0.50;0.47;;;21.10;67.30;;;;;;4971416;28;20097;-37
2022/10/03 14:11:58;;;;;;;0.20;0.20;;;21.10;67.20;;;;;;5009007;28;20053;-34
2022/10/03 14:14:37;;;;;;;0.30;0.30;;;21.10;67.20;;;;;;5004051;28;20089;-37
2022/10/03 14:17:07;;;;;;;0.28;0.28;;;21.10;67.20;;;;;;5001450;28;20707;-35
2022/10/03 14:19:48;;;;;;;0.40;0.30;;;21.10;67.10;;;;;;4989240;28;20046;-36
2022/10/03 14:22:35;;;;;;;0.25;0.25;;;21.10;67.10;;;;;;5005567;28;20072;-37
2022/10/03 14:25:24;;;;;;;0.30;0.20;;;21.10;67.20;;;;;;5015555;28;20045;-38
2022/10/03 14:27:50;;;;;;;0.20;0.20;;;21.10;67.10;;;;;;4993626;28;20547;-39
2022/10/03 14:30:41;;;;;;;0.40;0.40;;;21.10;67.00;;;;;;5006951;28;20100;-37